logo
Search for airport 
image banner adimage banner adimage banner ad
image banner ad

FLLM - Lushimba Springs

Located in , Zambia

ICAO - , IATA -

Data provided by Airmate  

General information

Coordinates: S14°15'3" E25°33'25"
Elevation is 3701 feet MSL.
Magnetic variation is -4° East
View others Airports in North-Western Province

Operational data

Special qualification required
Current time UTC:
Current local time:
Weather at : - ( 0 km )
METAR: CZBF 130632Z AUTO 17009G17KT 150V220 9SM SCT017 SCT030 OVC041 13/12 A2956 RMK SLP013 DENSITY ALT 400FT
View NOTAMs / SUP AIP / TFR affecting this airport [VIEW]
Communications frequencies: [VIEW]

Runways:

RWY identifierQFULength (ft)Width (ft)SurfaceLDA (ft)
0656°320295DIRT
24236°320295DIRT

Airport contact information

Address: Zambia

Satellite view of FLLM